sensor_id;sensor_type;location;lat;lon;timestamp;pressure;altitude;pressure_sealevel;temperature
5571;BMP180;2808;51.240;6.794;2023-05-03T00:02:10;102331.00;;;7.70
5571;BMP180;2808;51.240;6.794;2023-05-03T00:04:38;102328.00;;;7.70
5571;BMP180;2808;51.240;6.794;2023-05-03T00:07:06;102324.00;;;7.70
5571;BMP180;2808;51.240;6.794;2023-05-03T00:09:33;102322.00;;;7.70
5571;BMP180;2808;51.240;6.794;2023-05-03T00:12:01;102325.00;;;7.60
5571;BMP180;2808;51.240;6.794;2023-05-03T00:14:30;102323.00;;;7.60
5571;BMP180;2808;51.240;6.794;2023-05-03T00:16:58;102318.00;;;7.60
5571;BMP180;2808;51.240;6.794;2023-05-03T00:19:26;102321.00;;;7.50
5571;BMP180;2808;51.240;6.794;2023-05-03T00:21:59;102316.00;;;7.50
5571;BMP180;2808;51.240;6.794;2023-05-03T00:24:26;102321.00;;;7.50
5571;BMP180;2808;51.240;6.794;2023-05-03T00:26:54;102320.00;;;7.50
5571;BMP180;2808;51.240;6.794;2023-05-03T00:29:21;102312.00;;;7.50
5571;BMP180;2808;51.240;6.794;2023-05-03T00:31:48;102323.00;;;7.50
5571;BMP180;2808;51.240;6.794;2023-05-03T00:34:17;102323.00;;;7.50
5571;BMP180;2808;51.240;6.794;2023-05-03T00:36:44;102332.00;;;7.50
5571;BMP180;2808;51.240;6.794;2023-05-03T00:39:12;102327.00;;;7.50
5571;BMP180;2808;51.240;6.794;2023-05-03T00:41:40;102320.00;;;7.50
5571;BMP180;2808;51.240;6.794;2023-05-03T00:44:07;102331.00;;;7.50
5571;BMP180;2808;51.240;6.794;2023-05-03T00:46:34;102317.00;;;7.50
5571;BMP180;2808;51.240;6.794;2023-05-03T00:49:02;102318.00;;;7.50
5571;BMP180;2808;51.240;6.794;2023-05-03T00:51:31;102322.00;;;7.40
5571;BMP180;2808;51.240;6.794;2023-05-03T00:53:58;102326.00;;;7.40
5571;BMP180;2808;51.240;6.794;2023-05-03T00:56:26;102316.00;;;7.40
5571;BMP180;2808;51.240;6.794;2023-05-03T00:58:54;102315.00;;;7.40
5571;BMP180;2808;51.240;6.794;2023-05-03T01:01:21;102323.00;;;7.30
5571;BMP180;2808;51.240;6.794;2023-05-03T01:03:49;102311.00;;;7.20
5571;BMP180;2808;51.240;6.794;2023-05-03T01:06:28;102319.00;;;7.20
5571;BMP180;2808;51.240;6.794;2023-05-03T01:09:03;102317.00;;;7.20
5571;BMP180;2808;51.240;6.794;2023-05-03T01:11:41;102324.00;;;7.20
5571;BMP180;2808;51.240;6.794;2023-05-03T01:14:19;102324.00;;;7.10
5571;BMP180;2808;51.240;6.794;2023-05-03T01:16:52;102313.00;;;7.10
5571;BMP180;2808;51.240;6.794;2023-05-03T01:19:28;102319.00;;;7.00
5571;BMP180;2808;51.240;6.794;2023-05-03T01:22:08;102322.00;;;6.90
5571;BMP180;2808;51.240;6.794;2023-05-03T01:24:39;102326.00;;;6.90
5571;BMP180;2808;51.240;6.794;2023-05-03T01:27:09;102316.00;;;6.90
5571;BMP180;2808;51.240;6.794;2023-05-03T01:29:37;102320.00;;;6.80
5571;BMP180;2808;51.240;6.794;2023-05-03T01:32:08;102322.00;;;6.80
5571;BMP180;2808;51.240;6.794;2023-05-03T01:34:44;102319.00;;;6.70
5571;BMP180;2808;51.240;6.794;2023-05-03T01:37:14;102329.00;;;6.70
5571;BMP180;2808;51.240;6.794;2023-05-03T01:39:47;102323.00;;;6.60
5571;BMP180;2808;51.240;6.794;2023-05-03T01:42:18;102324.00;;;6.60
5571;BMP180;2808;51.240;6.794;2023-05-03T01:44:48;102334.00;;;6.60
5571;BMP180;2808;51.240;6.794;2023-05-03T01:47:16;102327.00;;;6.60
5571;BMP180;2808;51.240;6.794;2023-05-03T01:49:43;102325.00;;;6.60
5571;BMP180;2808;51.240;6.794;2023-05-03T01:52:24;102326.00;;;6.60
5571;BMP180;2808;51.240;6.794;2023-05-03T01:55:11;102327.00;;;6.50
5571;BMP180;2808;51.240;6.794;2023-05-03T01:57:40;102333.00;;;6.50
5571;BMP180;2808;51.240;6.794;2023-05-03T02:00:08;102338.00;;;6.50
5571;BMP180;2808;51.240;6.794;2023-05-03T02:02:36;102341.00;;;6.50
5571;BMP180;2808;51.240;6.794;2023-05-03T02:05:04;102333.00;;;6.40
5571;BMP180;2808;51.240;6.794;2023-05-03T02:07:32;102340.00;;;6.40
5571;BMP180;2808;51.240;6.794;2023-05-03T02:10:02;102336.00;;;6.40
5571;BMP180;2808;51.240;6.794;2023-05-03T02:12:29;102338.00;;;6.30
5571;BMP180;2808;51.240;6.794;2023-05-03T02:14:58;102340.00;;;6.40
5571;BMP180;2808;51.240;6.794;2023-05-03T02:17:25;102351.00;;;6.30
5571;BMP180;2808;51.240;6.794;2023-05-03T02:19:53;102353.00;;;6.30
5571;BMP180;2808;51.240;6.794;2023-05-03T02:22:22;102344.00;;;6.20
5571;BMP180;2808;51.240;6.794;2023-05-03T02:24:50;102352.00;;;6.20
5571;BMP180;2808;51.240;6.794;2023-05-03T02:27:17;102352.00;;;6.20
5571;BMP180;2808;51.240;6.794;2023-05-03T02:29:45;102358.00;;;6.20
5571;BMP180;2808;51.240;6.794;2023-05-03T02:32:14;102358.00;;;6.20
5571;BMP180;2808;51.240;6.794;2023-05-03T02:34:45;102358.00;;;6.20
5571;BMP180;2808;51.240;6.794;2023-05-03T02:37:13;102362.00;;;6.20
5571;BMP180;2808;51.240;6.794;2023-05-03T02:39:40;102360.00;;;6.20
5571;BMP180;2808;51.240;6.794;2023-05-03T02:42:08;102363.00;;;6.20
5571;BMP180;2808;51.240;6.794;2023-05-03T02:44:35;102363.00;;;6.20
5571;BMP180;2808;51.240;6.794;2023-05-03T02:47:03;102360.00;;;6.10
5571;BMP180;2808;51.240;6.794;2023-05-03T02:49:32;102356.00;;;6.10
5571;BMP180;2808;51.240;6.794;2023-05-03T02:51:59;102362.00;;;6.10
5571;BMP180;2808;51.240;6.794;2023-05-03T02:54:26;102353.00;;;6.10
5571;BMP180;2808;51.240;6.794;2023-05-03T02:56:54;102353.00;;;6.00
5571;BMP180;2808;51.240;6.794;2023-05-03T02:59:21;102350.00;;;6.00
5571;BMP180;2808;51.240;6.794;2023-05-03T03:01:49;102355.00;;;5.90
5571;BMP180;2808;51.240;6.794;2023-05-03T03:04:16;102355.00;;;5.90
5571;BMP180;2808;51.240;6.794;2023-05-03T03:06:45;102343.00;;;5.90
5571;BMP180;2808;51.240;6.794;2023-05-03T03:09:12;102342.00;;;5.90
5571;BMP180;2808;51.240;6.794;2023-05-03T03:11:40;102340.00;;;5.90
5571;BMP180;2808;51.240;6.794;2023-05-03T03:14:07;102336.00;;;5.80
5571;BMP180;2808;51.240;6.794;2023-05-03T03:16:35;102336.00;;;5.80
5571;BMP180;2808;51.240;6.794;2023-05-03T03:19:02;102320.00;;;5.80
5571;BMP180;2808;51.240;6.794;2023-05-03T03:21:29;102325.00;;;5.70
5571;BMP180;2808;51.240;6.794;2023-05-03T03:23:59;102320.00;;;5.70
5571;BMP180;2808;51.240;6.794;2023-05-03T03:26:26;102321.00;;;5.60
5571;BMP180;2808;51.240;6.794;2023-05-03T03:28:53;102312.00;;;5.60
5571;BMP180;2808;51.240;6.794;2023-05-03T03:31:21;102308.00;;;5.60
5571;BMP180;2808;51.240;6.794;2023-05-03T03:33:50;102309.00;;;5.60
5571;BMP180;2808;51.240;6.794;2023-05-03T03:36:18;102310.00;;;5.70
5571;BMP180;2808;51.240;6.794;2023-05-03T03:38:46;102313.00;;;5.70
5571;BMP180;2808;51.240;6.794;2023-05-03T03:41:14;102306.00;;;5.70
5571;BMP180;2808;51.240;6.794;2023-05-03T03:43:42;102308.00;;;5.70
5571;BMP180;2808;51.240;6.794;2023-05-03T03:46:09;102299.00;;;5.70
5571;BMP180;2808;51.240;6.794;2023-05-03T03:48:36;102307.00;;;5.70
5571;BMP180;2808;51.240;6.794;2023-05-03T03:51:04;102301.00;;;5.70
5571;BMP180;2808;51.240;6.794;2023-05-03T03:53:31;102295.00;;;5.80
5571;BMP180;2808;51.240;6.794;2023-05-03T03:55:59;102297.00;;;5.80
5571;BMP180;2808;51.240;6.794;2023-05-03T03:58:28;102301.00;;;5.80
5571;BMP180;2808;51.240;6.794;2023-05-03T04:00:55;102290.00;;;5.90
5571;BMP180;2808;51.240;6.794;2023-05-03T04:03:23;102289.00;;;5.80
5571;BMP180;2808;51.240;6.794;2023-05-03T04:05:50;102276.00;;;5.90
5571;BMP180;2808;51.240;6.794;2023-05-03T04:08:20;102277.00;;;5.90
5571;BMP180;2808;51.240;6.794;2023-05-03T04:10:48;102278.00;;;6.00
5571;BMP180;2808;51.240;6.794;2023-05-03T04:13:20;102269.00;;;6.00
5571;BMP180;2808;51.240;6.794;2023-05-03T04:15:53;102269.00;;;6.00
5571;BMP180;2808;51.240;6.794;2023-05-03T04:18:22;102263.00;;;6.10
5571;BMP180;2808;51.240;6.794;2023-05-03T04:20:49;102269.00;;;6.20
5571;BMP180;2808;51.240;6.794;2023-05-03T04:23:16;102276.00;;;6.20
5571;BMP180;2808;51.240;6.794;2023-05-03T04:25:44;102283.00;;;6.40
5571;BMP180;2808;51.240;6.794;2023-05-03T04:28:13;102296.00;;;6.50
5571;BMP180;2808;51.240;6.794;2023-05-03T04:30:41;102287.00;;;6.70
5571;BMP180;2808;51.240;6.794;2023-05-03T04:33:11;102296.00;;;6.80
5571;BMP180;2808;51.240;6.794;2023-05-03T04:35:39;102298.00;;;7.10
5571;BMP180;2808;51.240;6.794;2023-05-03T04:38:07;102311.00;;;7.30
5571;BMP180;2808;51.240;6.794;2023-05-03T04:40:35;102316.00;;;7.50
5571;BMP180;2808;51.240;6.794;2023-05-03T04:43:02;102321.00;;;7.70
5571;BMP180;2808;51.240;6.794;2023-05-03T04:45:30;102318.00;;;7.90
5571;BMP180;2808;51.240;6.794;2023-05-03T04:47:58;102317.00;;;8.10
5571;BMP180;2808;51.240;6.794;2023-05-03T04:50:27;102314.00;;;8.20
5571;BMP180;2808;51.240;6.794;2023-05-03T04:52:54;102310.00;;;8.40
5571;BMP180;2808;51.240;6.794;2023-05-03T04:55:22;102314.00;;;8.70
5571;BMP180;2808;51.240;6.794;2023-05-03T04:57:49;102312.00;;;8.80
5571;BMP180;2808;51.240;6.794;2023-05-03T05:00:17;102314.00;;;8.90
5571;BMP180;2808;51.240;6.794;2023-05-03T05:02:46;102311.00;;;8.90
5571;BMP180;2808;51.240;6.794;2023-05-03T05:05:13;102324.00;;;9.20
5571;BMP180;2808;51.240;6.794;2023-05-03T05:07:42;102317.00;;;9.50
5571;BMP180;2808;51.240;6.794;2023-05-03T05:10:10;102324.00;;;9.70
5571;BMP180;2808;51.240;6.794;2023-05-03T05:12:38;102320.00;;;10.00
5571;BMP180;2808;51.240;6.794;2023-05-03T05:15:07;102319.00;;;10.20
5571;BMP180;2808;51.240;6.794;2023-05-03T05:17:35;102327.00;;;10.40
5571;BMP180;2808;51.240;6.794;2023-05-03T05:20:02;102319.00;;;10.60
5571;BMP180;2808;51.240;6.794;2023-05-03T05:22:32;102330.00;;;10.80
5571;BMP180;2808;51.240;6.794;2023-05-03T05:25:03;102337.00;;;11.00
5571;BMP180;2808;51.240;6.794;2023-05-03T05:27:31;102344.00;;;11.20
5571;BMP180;2808;51.240;6.794;2023-05-03T05:29:58;102342.00;;;11.30
5571;BMP180;2808;51.240;6.794;2023-05-03T05:32:26;102347.00;;;11.40
5571;BMP180;2808;51.240;6.794;2023-05-03T05:34:53;102353.00;;;11.80
5571;BMP180;2808;51.240;6.794;2023-05-03T05:37:24;102348.00;;;12.00
5571;BMP180;2808;51.240;6.794;2023-05-03T05:39:53;102349.00;;;12.20
5571;BMP180;2808;51.240;6.794;2023-05-03T05:42:22;102354.00;;;12.40
5571;BMP180;2808;51.240;6.794;2023-05-03T05:44:50;102353.00;;;12.50
5571;BMP180;2808;51.240;6.794;2023-05-03T05:47:18;102355.00;;;12.60
5571;BMP180;2808;51.240;6.794;2023-05-03T05:49:46;102350.00;;;12.50
5571;BMP180;2808;51.240;6.794;2023-05-03T05:52:14;102350.00;;;12.60
5571;BMP180;2808;51.240;6.794;2023-05-03T05:54:43;102363.00;;;12.80
5571;BMP180;2808;51.240;6.794;2023-05-03T05:57:11;102362.00;;;12.80
5571;BMP180;2808;51.240;6.794;2023-05-03T05:59:44;102365.00;;;12.90
5571;BMP180;2808;51.240;6.794;2023-05-03T06:02:15;102365.00;;;12.70
5571;BMP180;2808;51.240;6.794;2023-05-03T06:04:43;102362.00;;;13.00
5571;BMP180;2808;51.240;6.794;2023-05-03T06:07:14;102363.00;;;13.20
5571;BMP180;2808;51.240;6.794;2023-05-03T06:09:56;102355.00;;;13.40
5571;BMP180;2808;51.240;6.794;2023-05-03T06:12:24;102365.00;;;13.70
5571;BMP180;2808;51.240;6.794;2023-05-03T06:14:55;102360.00;;;13.80
5571;BMP180;2808;51.240;6.794;2023-05-03T06:17:22;102362.00;;;13.90
5571;BMP180;2808;51.240;6.794;2023-05-03T06:19:51;102365.00;;;14.00
5571;BMP180;2808;51.240;6.794;2023-05-03T06:22:29;102364.00;;;14.30
5571;BMP180;2808;51.240;6.794;2023-05-03T06:25:06;102374.00;;;14.60
5571;BMP180;2808;51.240;6.794;2023-05-03T06:27:59;102366.00;;;14.60
5571;BMP180;2808;51.240;6.794;2023-05-03T06:30:52;102372.00;;;14.70
5571;BMP180;2808;51.240;6.794;2023-05-03T06:33:24;102366.00;;;14.90
5571;BMP180;2808;51.240;6.794;2023-05-03T06:42:58;102369.00;;;15.00
5571;BMP180;2808;51.240;6.794;2023-05-03T06:45:31;102368.00;;;14.60
5571;BMP180;2808;51.240;6.794;2023-05-03T06:48:01;102365.00;;;14.30
5571;BMP180;2808;51.240;6.794;2023-05-03T06:50:28;102361.00;;;14.60
5571;BMP180;2808;51.240;6.794;2023-05-03T06:52:56;102360.00;;;14.90
5571;BMP180;2808;51.240;6.794;2023-05-03T06:55:26;102363.00;;;14.80
5571;BMP180;2808;51.240;6.794;2023-05-03T06:57:53;102370.00;;;14.70
5571;BMP180;2808;51.240;6.794;2023-05-03T07:00:21;102366.00;;;14.80
5571;BMP180;2808;51.240;6.794;2023-05-03T07:03:04;102376.00;;;15.00
5571;BMP180;2808;51.240;6.794;2023-05-03T07:05:32;102373.00;;;14.50
5571;BMP180;2808;51.240;6.794;2023-05-03T07:08:12;102362.00;;;14.60
5571;BMP180;2808;51.240;6.794;2023-05-03T07:10:40;102367.00;;;15.00
5571;BMP180;2808;51.240;6.794;2023-05-03T07:13:07;102381.00;;;15.00
5571;BMP180;2808;51.240;6.794;2023-05-03T07:15:37;102375.00;;;14.60
5571;BMP180;2808;51.240;6.794;2023-05-03T07:18:06;102375.00;;;14.00
5571;BMP180;2808;51.240;6.794;2023-05-03T07:20:37;102374.00;;;14.10
5571;BMP180;2808;51.240;6.794;2023-05-03T07:23:09;102361.00;;;13.80
5571;BMP180;2808;51.240;6.794;2023-05-03T07:25:38;102364.00;;;14.10
5571;BMP180;2808;51.240;6.794;2023-05-03T07:28:06;102365.00;;;14.40
5571;BMP180;2808;51.240;6.794;2023-05-03T07:30:34;102369.00;;;14.60
5571;BMP180;2808;51.240;6.794;2023-05-03T07:33:04;102365.00;;;15.00
5571;BMP180;2808;51.240;6.794;2023-05-03T07:35:36;102367.00;;;15.00
5571;BMP180;2808;51.240;6.794;2023-05-03T07:38:04;102366.00;;;15.00
5571;BMP180;2808;51.240;6.794;2023-05-03T07:40:34;102349.00;;;14.30
5571;BMP180;2808;51.240;6.794;2023-05-03T07:43:03;102347.00;;;14.40
5571;BMP180;2808;51.240;6.794;2023-05-03T07:45:30;102357.00;;;14.60
5571;BMP180;2808;51.240;6.794;2023-05-03T07:47:58;102341.00;;;14.40
5571;BMP180;2808;51.240;6.794;2023-05-03T07:50:26;102339.00;;;14.60
5571;BMP180;2808;51.240;6.794;2023-05-03T07:53:11;102336.00;;;14.70
5571;BMP180;2808;51.240;6.794;2023-05-03T07:55:39;102333.00;;;14.70
5571;BMP180;2808;51.240;6.794;2023-05-03T07:58:08;102348.00;;;14.90
5571;BMP180;2808;51.240;6.794;2023-05-03T08:00:42;102347.00;;;14.50
5571;BMP180;2808;51.240;6.794;2023-05-03T08:03:15;102348.00;;;14.60
5571;BMP180;2808;51.240;6.794;2023-05-03T08:06:02;102343.00;;;14.50
5571;BMP180;2808;51.240;6.794;2023-05-03T08:08:48;102338.00;;;14.60
5571;BMP180;2808;51.240;6.794;2023-05-03T08:11:16;102343.00;;;14.90
5571;BMP180;2808;51.240;6.794;2023-05-03T08:13:43;102342.00;;;15.10
5571;BMP180;2808;51.240;6.794;2023-05-03T08:16:21;102343.00;;;15.00
5571;BMP180;2808;51.240;6.794;2023-05-03T08:18:51;102339.00;;;15.00
5571;BMP180;2808;51.240;6.794;2023-05-03T08:21:18;102341.00;;;14.50
5571;BMP180;2808;51.240;6.794;2023-05-03T08:23:48;102337.00;;;14.60
5571;BMP180;2808;51.240;6.794;2023-05-03T08:26:23;102334.00;;;14.80
5571;BMP180;2808;51.240;6.794;2023-05-03T08:31:40;102337.00;;;14.40
5571;BMP180;2808;51.240;6.794;2023-05-03T08:34:09;102331.00;;;14.50
5571;BMP180;2808;51.240;6.794;2023-05-03T08:36:38;102341.00;;;14.90
5571;BMP180;2808;51.240;6.794;2023-05-03T08:39:07;102333.00;;;14.90
5571;BMP180;2808;51.240;6.794;2023-05-03T08:41:39;102319.00;;;15.10
5571;BMP180;2808;51.240;6.794;2023-05-03T08:44:13;102330.00;;;15.50
5571;BMP180;2808;51.240;6.794;2023-05-03T08:46:46;102322.00;;;15.00
5571;BMP180;2808;51.240;6.794;2023-05-03T08:49:14;102329.00;;;14.80
5571;BMP180;2808;51.240;6.794;2023-05-03T08:51:43;102332.00;;;14.50
5571;BMP180;2808;51.240;6.794;2023-05-03T08:54:14;102336.00;;;14.60
5571;BMP180;2808;51.240;6.794;2023-05-03T08:56:43;102329.00;;;14.90
5571;BMP180;2808;51.240;6.794;2023-05-03T08:59:12;102331.00;;;14.70
5571;BMP180;2808;51.240;6.794;2023-05-03T09:01:42;102328.00;;;14.60
5571;BMP180;2808;51.240;6.794;2023-05-03T09:04:10;102333.00;;;14.70
5571;BMP180;2808;51.240;6.794;2023-05-03T09:06:38;102329.00;;;14.60
5571;BMP180;2808;51.240;6.794;2023-05-03T09:09:07;102338.00;;;14.90
5571;BMP180;2808;51.240;6.794;2023-05-03T09:11:38;102325.00;;;15.00
5571;BMP180;2808;51.240;6.794;2023-05-03T09:14:11;102320.00;;;15.20
5571;BMP180;2808;51.240;6.794;2023-05-03T09:16:39;102315.00;;;15.20
5571;BMP180;2808;51.240;6.794;2023-05-03T09:19:10;102309.00;;;15.20
5571;BMP180;2808;51.240;6.794;2023-05-03T09:21:39;102317.00;;;15.00
5571;BMP180;2808;51.240;6.794;2023-05-03T09:24:15;102304.00;;;14.90
5571;BMP180;2808;51.240;6.794;2023-05-03T09:26:46;102310.00;;;15.10
5571;BMP180;2808;51.240;6.794;2023-05-03T09:29:31;102321.00;;;15.20
5571;BMP180;2808;51.240;6.794;2023-05-03T09:32:04;102303.00;;;15.10
5571;BMP180;2808;51.240;6.794;2023-05-03T09:34:34;102296.00;;;15.20
5571;BMP180;2808;51.240;6.794;2023-05-03T09:37:02;102302.00;;;15.10
5571;BMP180;2808;51.240;6.794;2023-05-03T09:39:30;102304.00;;;14.70
5571;BMP180;2808;51.240;6.794;2023-05-03T09:42:09;102300.00;;;14.40
5571;BMP180;2808;51.240;6.794;2023-05-03T09:44:43;102302.00;;;14.50
5571;BMP180;2808;51.240;6.794;2023-05-03T09:47:14;102301.00;;;14.80
5571;BMP180;2808;51.240;6.794;2023-05-03T09:49:42;102295.00;;;15.00
5571;BMP180;2808;51.240;6.794;2023-05-03T09:52:09;102296.00;;;15.00
5571;BMP180;2808;51.240;6.794;2023-05-03T09:54:37;102289.00;;;14.90
5571;BMP180;2808;51.240;6.794;2023-05-03T09:57:08;102290.00;;;15.30
5571;BMP180;2808;51.240;6.794;2023-05-03T09:59:39;102283.00;;;15.50
5571;BMP180;2808;51.240;6.794;2023-05-03T10:02:07;102287.00;;;15.40
5571;BMP180;2808;51.240;6.794;2023-05-03T10:04:42;102282.00;;;15.30
5571;BMP180;2808;51.240;6.794;2023-05-03T10:07:13;102278.00;;;15.20
5571;BMP180;2808;51.240;6.794;2023-05-03T10:09:45;102260.00;;;15.30
5571;BMP180;2808;51.240;6.794;2023-05-03T10:12:37;102262.00;;;15.50
5571;BMP180;2808;51.240;6.794;2023-05-03T10:15:07;102263.00;;;15.20
5571;BMP180;2808;51.240;6.794;2023-05-03T10:17:37;102258.00;;;14.90
5571;BMP180;2808;51.240;6.794;2023-05-03T10:20:12;102263.00;;;14.90
5571;BMP180;2808;51.240;6.794;2023-05-03T10:23:11;102275.00;;;14.80
5571;BMP180;2808;51.240;6.794;2023-05-03T10:28:43;102254.00;;;14.40
5571;BMP180;2808;51.240;6.794;2023-05-03T10:31:42;102247.00;;;14.40
5571;BMP180;2808;51.240;6.794;2023-05-03T10:34:24;102234.00;;;14.70
5571;BMP180;2808;51.240;6.794;2023-05-03T10:36:52;102243.00;;;14.60
5571;BMP180;2808;51.240;6.794;2023-05-03T10:39:20;102243.00;;;14.60
5571;BMP180;2808;51.240;6.794;2023-05-03T10:41:58;102237.00;;;14.60
5571;BMP180;2808;51.240;6.794;2023-05-03T10:44:33;102259.00;;;14.70
5571;BMP180;2808;51.240;6.794;2023-05-03T10:47:09;102260.00;;;14.70
5571;BMP180;2808;51.240;6.794;2023-05-03T10:49:39;102263.00;;;14.50
5571;BMP180;2808;51.240;6.794;2023-05-03T10:55:08;102249.00;;;14.20
5571;BMP180;2808;51.240;6.794;2023-05-03T10:57:40;102251.00;;;14.20
5571;BMP180;2808;51.240;6.794;2023-05-03T11:00:13;102258.00;;;14.30
5571;BMP180;2808;51.240;6.794;2023-05-03T11:02:55;102246.00;;;14.60
5571;BMP180;2808;51.240;6.794;2023-05-03T11:05:30;102243.00;;;14.60
5571;BMP180;2808;51.240;6.794;2023-05-03T11:08:08;102240.00;;;14.50
5571;BMP180;2808;51.240;6.794;2023-05-03T11:10:36;102238.00;;;14.50
5571;BMP180;2808;51.240;6.794;2023-05-03T11:13:06;102235.00;;;14.70
5571;BMP180;2808;51.240;6.794;2023-05-03T11:15:37;102241.00;;;14.80
5571;BMP180;2808;51.240;6.794;2023-05-03T11:18:06;102235.00;;;14.70
5571;BMP180;2808;51.240;6.794;2023-05-03T11:20:35;102223.00;;;14.60
5571;BMP180;2808;51.240;6.794;2023-05-03T11:23:04;102219.00;;;14.80
5571;BMP180;2808;51.240;6.794;2023-05-03T11:25:32;102233.00;;;14.90
5571;BMP180;2808;51.240;6.794;2023-05-03T11:28:00;102212.00;;;14.50
5571;BMP180;2808;51.240;6.794;2023-05-03T11:30:29;102215.00;;;14.40
5571;BMP180;2808;51.240;6.794;2023-05-03T11:33:00;102208.00;;;14.50
5571;BMP180;2808;51.240;6.794;2023-05-03T11:35:28;102214.00;;;14.60
5571;BMP180;2808;51.240;6.794;2023-05-03T11:37:57;102203.00;;;14.70
5571;BMP180;2808;51.240;6.794;2023-05-03T11:40:24;102208.00;;;14.90
5571;BMP180;2808;51.240;6.794;2023-05-03T11:42:54;102199.00;;;14.80
5571;BMP180;2808;51.240;6.794;2023-05-03T11:45:24;102201.00;;;14.80
5571;BMP180;2808;51.240;6.794;2023-05-03T11:47:53;102204.00;;;15.00
5571;BMP180;2808;51.240;6.794;2023-05-03T11:50:43;102199.00;;;14.90
5571;BMP180;2808;51.240;6.794;2023-05-03T11:53:11;102199.00;;;14.80
5571;BMP180;2808;51.240;6.794;2023-05-03T11:55:40;102197.00;;;14.80
5571;BMP180;2808;51.240;6.794;2023-05-03T11:58:11;102202.00;;;14.90
5571;BMP180;2808;51.240;6.794;2023-05-03T12:00:41;102199.00;;;14.90
5571;BMP180;2808;51.240;6.794;2023-05-03T12:03:15;102198.00;;;14.90
5571;BMP180;2808;51.240;6.794;2023-05-03T12:05:45;102195.00;;;15.00
5571;BMP180;2808;51.240;6.794;2023-05-03T12:08:13;102199.00;;;15.00
5571;BMP180;2808;51.240;6.794;2023-05-03T12:10:41;102200.00;;;15.00
5571;BMP180;2808;51.240;6.794;2023-05-03T12:13:10;102197.00;;;15.10
5571;BMP180;2808;51.240;6.794;2023-05-03T12:15:39;102191.00;;;15.20
5571;BMP180;2808;51.240;6.794;2023-05-03T12:18:10;102190.00;;;15.30
5571;BMP180;2808;51.240;6.794;2023-05-03T12:20:38;102190.00;;;15.40
5571;BMP180;2808;51.240;6.794;2023-05-03T12:23:08;102184.00;;;15.40
5571;BMP180;2808;51.240;6.794;2023-05-03T12:25:36;102188.00;;;15.20
5571;BMP180;2808;51.240;6.794;2023-05-03T12:28:05;102178.00;;;15.20
5571;BMP180;2808;51.240;6.794;2023-05-03T12:30:33;102172.00;;;15.10
5571;BMP180;2808;51.240;6.794;2023-05-03T12:33:00;102173.00;;;15.20
5571;BMP180;2808;51.240;6.794;2023-05-03T12:35:28;102167.00;;;15.20
5571;BMP180;2808;51.240;6.794;2023-05-03T12:37:56;102165.00;;;15.20
5571;BMP180;2808;51.240;6.794;2023-05-03T12:40:25;102170.00;;;15.10
5571;BMP180;2808;51.240;6.794;2023-05-03T12:42:53;102162.00;;;15.00
5571;BMP180;2808;51.240;6.794;2023-05-03T12:45:21;102156.00;;;15.10
5571;BMP180;2808;51.240;6.794;2023-05-03T12:47:48;102144.00;;;15.10
5571;BMP180;2808;51.240;6.794;2023-05-03T12:50:16;102140.00;;;15.30
5571;BMP180;2808;51.240;6.794;2023-05-03T12:52:45;102150.00;;;15.30
5571;BMP180;2808;51.240;6.794;2023-05-03T12:55:13;102148.00;;;15.20
5571;BMP180;2808;51.240;6.794;2023-05-03T12:57:42;102143.00;;;15.20
5571;BMP180;2808;51.240;6.794;2023-05-03T13:00:10;102141.00;;;15.20
5571;BMP180;2808;51.240;6.794;2023-05-03T13:02:38;102129.00;;;15.20
5571;BMP180;2808;51.240;6.794;2023-05-03T13:05:08;102126.00;;;15.30
5571;BMP180;2808;51.240;6.794;2023-05-03T13:07:38;102119.00;;;15.40
5571;BMP180;2808;51.240;6.794;2023-05-03T13:10:07;102122.00;;;15.30
5571;BMP180;2808;51.240;6.794;2023-05-03T13:12:35;102119.00;;;15.40
5571;BMP180;2808;51.240;6.794;2023-05-03T13:15:10;102107.00;;;15.50
5571;BMP180;2808;51.240;6.794;2023-05-03T13:17:54;102115.00;;;15.50
5571;BMP180;2808;51.240;6.794;2023-05-03T13:20:28;102098.00;;;15.40
5571;BMP180;2808;51.240;6.794;2023-05-03T13:23:11;102100.00;;;15.40
5571;BMP180;2808;51.240;6.794;2023-05-03T13:26:25;102105.00;;;15.50
5571;BMP180;2808;51.240;6.794;2023-05-03T13:29:59;102089.00;;;15.30
5571;BMP180;2808;51.240;6.794;2023-05-03T13:40:33;102073.00;;;15.40
5571;BMP180;2808;51.240;6.794;2023-05-03T13:43:00;102077.00;;;15.40
5571;BMP180;2808;51.240;6.794;2023-05-03T13:45:29;102070.00;;;15.50
5571;BMP180;2808;51.240;6.794;2023-05-03T13:47:56;102075.00;;;15.60
5571;BMP180;2808;51.240;6.794;2023-05-03T13:50:24;102077.00;;;15.60
5571;BMP180;2808;51.240;6.794;2023-05-03T13:52:55;102071.00;;;15.50
5571;BMP180;2808;51.240;6.794;2023-05-03T13:55:25;102056.00;;;15.40
5571;BMP180;2808;51.240;6.794;2023-05-03T13:57:54;102039.00;;;15.40
5571;BMP180;2808;51.240;6.794;2023-05-03T14:00:25;102041.00;;;15.60
5571;BMP180;2808;51.240;6.794;2023-05-03T14:02:56;102035.00;;;15.60
5571;BMP180;2808;51.240;6.794;2023-05-03T14:05:40;102038.00;;;15.60
5571;BMP180;2808;51.240;6.794;2023-05-03T14:08:21;102029.00;;;15.60
5571;BMP180;2808;51.240;6.794;2023-05-03T14:10:53;102027.00;;;15.60
5571;BMP180;2808;51.240;6.794;2023-05-03T14:13:23;102024.00;;;15.60
5571;BMP180;2808;51.240;6.794;2023-05-03T14:15:51;102018.00;;;15.60
5571;BMP180;2808;51.240;6.794;2023-05-03T14:18:20;102007.00;;;15.60
5571;BMP180;2808;51.240;6.794;2023-05-03T14:21:00;102014.00;;;15.60
5571;BMP180;2808;51.240;6.794;2023-05-03T14:24:10;102018.00;;;15.60
5571;BMP180;2808;51.240;6.794;2023-05-03T14:26:51;102011.00;;;15.60
5571;BMP180;2808;51.240;6.794;2023-05-03T14:29:20;102006.00;;;15.60
5571;BMP180;2808;51.240;6.794;2023-05-03T14:31:51;102010.00;;;15.60
5571;BMP180;2808;51.240;6.794;2023-05-03T14:34:19;102021.00;;;15.60
5571;BMP180;2808;51.240;6.794;2023-05-03T14:36:49;102007.00;;;15.60
5571;BMP180;2808;51.240;6.794;2023-05-03T14:39:17;101996.00;;;15.60
5571;BMP180;2808;51.240;6.794;2023-05-03T14:41:47;101990.00;;;15.70
5571;BMP180;2808;51.240;6.794;2023-05-03T14:44:24;101988.00;;;15.70
5571;BMP180;2808;51.240;6.794;2023-05-03T14:47:02;101983.00;;;15.80
5571;BMP180;2808;51.240;6.794;2023-05-03T14:49:37;101995.00;;;15.80
5571;BMP180;2808;51.240;6.794;2023-05-03T14:52:07;101989.00;;;15.80
5571;BMP180;2808;51.240;6.794;2023-05-03T14:54:48;101989.00;;;15.70
5571;BMP180;2808;51.240;6.794;2023-05-03T14:57:20;101974.00;;;15.70
5571;BMP180;2808;51.240;6.794;2023-05-03T14:59:48;101974.00;;;15.70
5571;BMP180;2808;51.240;6.794;2023-05-03T15:02:18;101965.00;;;15.70
5571;BMP180;2808;51.240;6.794;2023-05-03T15:04:50;101959.00;;;15.70
5571;BMP180;2808;51.240;6.794;2023-05-03T15:07:22;101971.00;;;15.70
5571;BMP180;2808;51.240;6.794;2023-05-03T15:09:50;101970.00;;;15.70
5571;BMP180;2808;51.240;6.794;2023-05-03T15:12:18;101974.00;;;15.80